Check out our new BloomSky Weather System.

Active alerts


No alerts


Thunder radar  blitzortung!


Rain radar more information rain snow radar


Visit our other weather sites:

Template documentation
and downloads

And another site



Weather Underground History page Text

Daily Summary for April 1, 2017 Units:  Metric    English   Both
« Previous Day
Next Day »
Daily Weekly Monthly Yearly Custom
  High: Low: Average:
Temperature: 26.3 °C 15.8 °C 21.7 °C
Dew Point: 20.2 °C 15.3 °C 18.3 °C
Humidity: 99 % 66 % 82 %
Wind Speed: 20.9 km/h 0 km/h 6 km/h
Wind Gust: 33.8 km/h - -
Wind:- - SE
Pressure: 1012.8 hPa 1009.4 hPa -
Precipitation: 0 mm    
Historical Graphs
 
 
Tabular Data for April 1, 2017
Time Temperature Dew Point Pressure Wind Wind Speed Wind Gust Humidity Rainfall Rate (Hourly)
00:04 19.3 °C 17.4 °C 1010 hPa ENE 3.2 km/h 6.4 km/h 89 % 0 mm
00:09 19.3 °C 17.4 °C 1010 hPa SE 1.6 km/h 8 km/h 89 % 0 mm
00:14 19.3 °C 17.4 °C 1010 hPa SE 1.6 km/h 9.7 km/h 89 % 0 mm
00:19 19.2 °C 17.3 °C 1010 hPa ESE 4.8 km/h 9.7 km/h 89 % 0 mm
00:24 19.2 °C 17.3 °C 1010 hPa SE 3.2 km/h 9.7 km/h 89 % 0 mm
00:29 19.1 °C 17.2 °C 1010 hPa ESE 3.2 km/h 8 km/h 89 % 0 mm
00:34 19 °C 17.1 °C 1010 hPa SE 3.2 km/h 8 km/h 89 % 0 mm
00:39 19 °C 17.3 °C 1010 hPa Calm   4.8 km/h 90 % 0 mm
00:44 18.9 °C 17.2 °C 1010 hPa ESE 3.2 km/h 4.8 km/h 90 % 0 mm
00:49 18.9 °C 17.2 °C 1010 hPa Calm   4.8 km/h 90 % 0 mm
00:54 18.8 °C 17.1 °C 1010 hPa SSE 1.6 km/h 4.8 km/h 90 % 0 mm
00:59 18.8 °C 17.1 °C 1010 hPa ESE 1.6 km/h 4.8 km/h 90 % 0 mm
01:04 18.7 °C 17.2 °C 1010 hPa Calm   4.8 km/h 91 % 0 mm
01:09 18.7 °C 17.2 °C 1010 hPa SE 3.2 km/h 6.4 km/h 91 % 0 mm
01:14 18.6 °C 17.1 °C 1010 hPa East 1.6 km/h 6.4 km/h 91 % 0 mm
01:19 18.6 °C 17.1 °C 1010 hPa East 1.6 km/h 6.4 km/h 91 % 0 mm
01:24 18.6 °C 17.1 °C 1010 hPa SE 3.2 km/h 4.8 km/h 91 % 0 mm
01:29 18.6 °C 17.1 °C 1010 hPa Calm   4.8 km/h 91 % 0 mm
01:34 18.4 °C 16.9 °C 1010 hPa Calm   4.8 km/h 91 % 0 mm
01:39 18.4 °C 16.9 °C 1010 hPa Calm   3.2 km/h 91 % 0 mm
01:44 18.3 °C 16.8 °C 1010 hPa Calm   3.2 km/h 91 % 0 mm
01:49 18.3 °C 16.8 °C 1009.7 hPa ESE 1.6 km/h 3.2 km/h 91 % 0 mm
01:54 18.2 °C 16.9 °C 1009.7 hPa Calm   3.2 km/h 92 % 0 mm
01:59 18.1 °C 16.8 °C 1009.7 hPa Calm   3.2 km/h 92 % 0 mm
02:04 18 °C 16.7 °C 1009.7 hPa Calm   1.6 km/h 92 % 0 mm
02:09 17.9 °C 16.6 °C 1009.7 hPa Calm   3.2 km/h 92 % 0 mm
02:14 17.8 °C 16.5 °C 1009.7 hPa Calm   3.2 km/h 92 % 0 mm
02:19 17.7 °C 16.4 °C 1009.7 hPa Calm   3.2 km/h 92 % 0 mm
02:24 17.5 °C 16.4 °C 1010 hPa Calm   1.6 km/h 93 % 0 mm
02:29 17.4 °C 16.3 °C 1010 hPa Calm   1.6 km/h 93 % 0 mm
02:34 17.3 °C 16.2 °C 1009.7 hPa Calm   1.6 km/h 93 % 0 mm
02:39 17.2 °C 16.1 °C 1009.7 hPa Calm   1.6 km/h 93 % 0 mm
02:44 17.2 °C 16.2 °C 1009.4 hPa Calm   1.6 km/h 94 % 0 mm
02:49 17.2 °C 16.2 °C 1009.7 hPa Calm   1.6 km/h 94 % 0 mm
02:54 17 °C 16 °C 1009.7 hPa Calm   1.6 km/h 94 % 0 mm
02:59 17.1 °C 16.3 °C 1009.4 hPa Calm   1.6 km/h 95 % 0 mm
03:04 17.1 °C 16.3 °C 1009.4 hPa Calm   4.8 km/h 95 % 0 mm
03:09 17.2 °C 16.4 °C 1009.4 hPa Calm   4.8 km/h 95 % 0 mm
03:14 17.2 °C 16.4 °C 1009.4 hPa Calm   4.8 km/h 95 % 0 mm
03:19 17.2 °C 16.4 °C 1009.4 hPa Calm   4.8 km/h 95 % 0 mm
03:24 17.3 °C 16.5 °C 1009.4 hPa Calm   4.8 km/h 95 % 0 mm
03:29 17.2 °C 16.4 °C 1009.4 hPa Calm   4.8 km/h 95 % 0 mm
03:34 17.2 °C 16.4 °C 1009.4 hPa Calm   4.8 km/h 95 % 0 mm
03:39 17.2 °C 16.6 °C 1009.4 hPa Calm   3.2 km/h 96 % 0 mm
03:44 17.2 °C 16.6 °C 1009.4 hPa Calm   3.2 km/h 96 % 0 mm
03:49 17.2 °C 16.6 °C 1009.7 hPa Calm   3.2 km/h 96 % 0 mm
03:54 17.2 °C 16.6 °C 1009.7 hPa Calm   3.2 km/h 96 % 0 mm
03:59 17.1 °C 16.5 °C 1009.7 hPa Calm   3.2 km/h 96 % 0 mm
04:04 17.1 °C 16.5 °C 1010 hPa Calm   3.2 km/h 96 % 0 mm
04:09 17 °C 16.4 °C 1010 hPa Calm   3.2 km/h 96 % 0 mm
04:14 16.9 °C 16.3 °C 1010 hPa Calm   1.6 km/h 96 % 0 mm
04:19 16.8 °C 16.2 °C 1010 hPa Calm   1.6 km/h 96 % 0 mm
04:24 16.7 °C 16.1 °C 1010 hPa Calm     96 % 0 mm
04:29 16.6 °C 16 °C 1010 hPa Calm   1.6 km/h 96 % 0 mm
04:34 16.4 °C 15.8 °C 1010 hPa Calm   1.6 km/h 96 % 0 mm
04:39 16.4 °C 15.8 °C 1010 hPa Calm   1.6 km/h 96 % 0 mm
04:44 16.3 °C 15.7 °C 1010 hPa Calm   1.6 km/h 96 % 0 mm
04:49 16.2 °C 15.6 °C 1010 hPa Calm   1.6 km/h 96 % 0 mm
04:54 16.2 °C 15.6 °C 1010 hPa Calm     96 % 0 mm
04:59 16.2 °C 15.6 °C 1010 hPa Calm     96 % 0 mm
05:04 16.1 °C 15.5 °C 1010 hPa Calm   1.6 km/h 96 % 0 mm
05:09 16 °C 15.5 °C 1010 hPa Calm   1.6 km/h 97 % 0 mm
05:14 15.9 °C 15.4 °C 1010 hPa Calm   1.6 km/h 97 % 0 mm
05:19 15.9 °C 15.4 °C 1010 hPa Calm     97 % 0 mm
05:24 15.9 °C 15.4 °C 1010.4 hPa Calm   1.6 km/h 97 % 0 mm
05:29 16 °C 15.5 °C 1010.4 hPa Calm   1.6 km/h 97 % 0 mm
05:34 15.9 °C 15.4 °C 1010.4 hPa Calm   1.6 km/h 97 % 0 mm
05:39 15.8 °C 15.3 °C 1010.4 hPa Calm     97 % 0 mm
05:44 15.8 °C 15.3 °C 1010.4 hPa Calm     97 % 0 mm
05:49 15.8 °C 15.3 °C 1010.4 hPa Calm     97 % 0 mm
05:54 15.8 °C 15.3 °C 1010.4 hPa Calm     97 % 0 mm
05:59 15.9 °C 15.6 °C 1010.4 hPa Calm   1.6 km/h 98 % 0 mm
06:04 16.1 °C 15.8 °C 1010 hPa Calm   3.2 km/h 98 % 0 mm
06:07 16.1 °C 15.8 °C 1010 hPa NNE 1.6 km/h 3.2 km/h 98 % 0 mm
06:12 16.2 °C 15.9 °C 1010 hPa Calm   3.2 km/h 98 % 0 mm
06:17 16.4 °C 16.1 °C 1010 hPa Calm   6.4 km/h 98 % 0 mm
06:22 16.4 °C 16.1 °C 1010.4 hPa Calm   6.4 km/h 98 % 0 mm
06:27 16.4 °C 16.1 °C 1010.4 hPa Calm   6.4 km/h 98 % 0 mm
06:32 16.4 °C 16.1 °C 1010.4 hPa Calm   4.8 km/h 98 % 0 mm
06:37 16.4 °C 16.1 °C 1010.7 hPa Calm   4.8 km/h 98 % 0 mm
06:42 16.5 °C 16.2 °C 1010.4 hPa Calm   4.8 km/h 98 % 0 mm
06:47 16.5 °C 16.2 °C 1010.4 hPa Calm   4.8 km/h 98 % 0 mm
06:52 16.5 °C 16.2 °C 1010.4 hPa Calm   3.2 km/h 98 % 0 mm
06:57 16.5 °C 16.2 °C 1010.4 hPa Calm   3.2 km/h 98 % 0 mm
07:02 16.5 °C 16.2 °C 1010.4 hPa Calm   3.2 km/h 98 % 0 mm
07:07 16.4 °C 16.1 °C 1010.4 hPa Calm   3.2 km/h 98 % 0 mm
07:12 16.5 °C 16.2 °C 1010.7 hPa Calm   3.2 km/h 98 % 0 mm
07:17 16.5 °C 16.2 °C 1010.7 hPa Calm   3.2 km/h 98 % 0 mm
07:22 16.6 °C 16.3 °C 1010.7 hPa Calm   4.8 km/h 98 % 0 mm
07:27 16.6 °C 16.3 °C 1011.1 hPa Calm   4.8 km/h 98 % 0 mm
07:32 16.7 °C 16.4 °C 1011.1 hPa Calm   4.8 km/h 98 % 0 mm
07:37 16.8 °C 16.5 °C 1011.1 hPa Calm   3.2 km/h 98 % 0 mm
07:42 16.9 °C 16.6 °C 1011.1 hPa SSW 1.6 km/h 3.2 km/h 98 % 0 mm
07:47 17 °C 16.7 °C 1011.1 hPa Calm   3.2 km/h 98 % 0 mm
07:52 17.2 °C 16.9 °C 1011.4 hPa SE 1.6 km/h 3.2 km/h 98 % 0 mm
07:57 17.5 °C 17.3 °C 1011.4 hPa Calm   3.2 km/h 99 % 0 mm
08:02 17.7 °C 17.4 °C 1011.4 hPa ESE 1.6 km/h 4.8 km/h 98 % 0 mm
08:07 17.8 °C 17.5 °C 1011.4 hPa Calm   4.8 km/h 98 % 0 mm
08:12 17.9 °C 17.6 °C 1011.7 hPa Calm   4.8 km/h 98 % 0 mm
08:17 18.1 °C 17.8 °C 1011.7 hPa SE 1.6 km/h 4.8 km/h 98 % 0 mm
08:22 18.2 °C 17.9 °C 1011.7 hPa Calm   4.8 km/h 98 % 0 mm
08:27 18.3 °C 18 °C 1012.1 hPa Calm   3.2 km/h 98 % 0 mm
08:32 18.4 °C 18.1 °C 1012.1 hPa Calm   3.2 km/h 98 % 0 mm
08:37 18.6 °C 18.3 °C 1012.1 hPa Calm   3.2 km/h 98 % 0 mm
08:42 18.8 °C 18.5 °C 1012.4 hPa Calm   3.2 km/h 98 % 0 mm
08:47 19 °C 18.7 °C 1012.4 hPa Calm   3.2 km/h 98 % 0 mm
08:52 19.2 °C 18.7 °C 1012.4 hPa ESE 3.2 km/h 3.2 km/h 97 % 0 mm
08:57 19.7 °C 19.4 °C 1012.4 hPa Calm   3.2 km/h 98 % 0 mm
09:03 20.2 °C 19.7 °C 1012.4 hPa Calm   3.2 km/h 97 % 0 mm
09:08 20.6 °C 19.9 °C 1012.4 hPa SSE 1.6 km/h 6.4 km/h 96 % 0 mm
09:13 20.9 °C 20.1 °C 1012.4 hPa ESE 1.6 km/h 6.4 km/h 95 % 0 mm
09:18 21.3 °C 19.9 °C 1012.4 hPa SSE 12.9 km/h 14.5 km/h 92 % 0 mm
09:23 21.7 °C 20.2 °C 1012.4 hPa East 3.2 km/h 14.5 km/h 91 % 0 mm
09:28 22.2 °C 19.9 °C 1012.4 hPa SE 8 km/h 14.5 km/h 87 % 0 mm
09:33 22.4 °C 19.8 °C 1012.4 hPa South 12.9 km/h 19.3 km/h 85 % 0 mm
09:43 22.7 °C 19.1 °C 1012.4 hPa South 11.3 km/h 22.5 km/h 80 % 0 mm
09:48 22.8 °C 19.2 °C 1012.4 hPa SSE 14.5 km/h 25.7 km/h 80 % 0 mm
09:53 22.8 °C 18.6 °C 1012.4 hPa SE 19.3 km/h 25.7 km/h 77 % 0 mm
09:58 22.9 °C 18.7 °C 1012.4 hPa SSE 16.1 km/h 33.8 km/h 77 % 0 mm
10:03 23.2 °C 18.7 °C 1012.1 hPa East 14.5 km/h 33.8 km/h 76 % 0 mm
10:08 23.2 °C 18.7 °C 1012.4 hPa SSE 9.7 km/h 33.8 km/h 76 % 0 mm
10:13 23.4 °C 19.1 °C 1012.4 hPa East 8 km/h 29 km/h 77 % 0 mm
10:18 23.6 °C 18.9 °C 1012.4 hPa ESE 11.3 km/h 29 km/h 75 % 0 mm
10:23 23.8 °C 18.9 °C 1012.4 hPa SSE 19.3 km/h 25.7 km/h 74 % 0 mm
10:28 23.8 °C 18.7 °C 1012.4 hPa ESE 20.9 km/h 25.7 km/h 73 % 0 mm
10:33 23.9 °C 18.8 °C 1012.4 hPa WNW 11.3 km/h 25.7 km/h 73 % 0 mm
10:38 24.3 °C 18.9 °C 1012.4 hPa ENE 9.7 km/h 25.7 km/h 72 % 0 mm
10:43 24.6 °C 19 °C 1012.4 hPa SSE 12.9 km/h 25.7 km/h 71 % 0 mm
10:48 24.7 °C 19.1 °C 1012.4 hPa ESE 8 km/h 24.1 km/h 71 % 0 mm
10:53 24.7 °C 18.9 °C 1012.8 hPa North 6.4 km/h 25.7 km/h 70 % 0 mm
10:58 24.7 °C 19.1 °C 1012.8 hPa SE 8 km/h 25.7 km/h 71 % 0 mm
11:03 24.6 °C 19 °C 1012.8 hPa SE 9.7 km/h 25.7 km/h 71 % 0 mm
11:08 24.4 °C 18.8 °C 1012.8 hPa East 11.3 km/h 24.1 km/h 71 % 0 mm
11:13 24.4 °C 18.3 °C 1012.8 hPa East 16.1 km/h 20.9 km/h 69 % 0 mm
11:18 24.3 °C 18.5 °C 1012.4 hPa ESE 12.9 km/h 22.5 km/h 70 % 0 mm
11:23 24.2 °C 18.4 °C 1012.8 hPa SE 17.7 km/h 22.5 km/h 70 % 0 mm
11:28 24.3 °C 18.7 °C 1012.4 hPa SSE 12.9 km/h 27.4 km/h 71 % 0 mm
11:33 24.4 °C 18.8 °C 1012.4 hPa SE 6.4 km/h 27.4 km/h 71 % 0 mm
11:39 24.4 °C 18.6 °C 1012.1 hPa ENE 9.7 km/h 27.4 km/h 70 % 0 mm
11:41 25.6 °C 18.8 °C 1011.7 hPa SE 14.5 km/h 29 km/h 66 % 0 mm
11:42 25.6 °C 19 °C 1011.7 hPa ESE 19.3 km/h 29 km/h 67 % 0 mm
11:44 24.4 °C 18.8 °C 1012.1 hPa ESE 12.9 km/h 22.5 km/h 71 % 0 mm
11:45 25.7 °C 19.3 °C 1011.7 hPa SE 11.3 km/h 29 km/h 68 % 0 mm
11:46 25.7 °C 19.1 °C 1011.7 hPa SE 11.3 km/h 29 km/h 67 % 0 mm
11:47 25.8 °C 19.2 °C 1011.7 hPa ESE 8 km/h 29 km/h 67 % 0 mm
11:48 25.9 °C 19.5 °C 1011.7 hPa East 16.1 km/h 29 km/h 68 % 0 mm
11:49 24.3 °C 18.7 °C 1012.1 hPa ESE 12.9 km/h 19.3 km/h 71 % 0 mm
11:52 25.9 °C 19.3 °C 1011.7 hPa SE 17.7 km/h 27.4 km/h 67 % 0 mm
11:53 25.9 °C 19.3 °C 1011.7 hPa ESE 11.3 km/h 27.4 km/h 67 % 0 mm
11:54 24.3 °C 18.9 °C 1012.1 hPa ENE 8 km/h 20.9 km/h 72 % 0 mm
11:56 25.9 °C 19.3 °C 1011.7 hPa ESE 11.3 km/h 27.4 km/h 67 % 0 mm
11:57 25.9 °C 19.3 °C 1011.7 hPa SE 12.9 km/h 27.4 km/h 67 % 0 mm
11:59 24.3 °C 18.5 °C 1012.4 hPa SSE 6.4 km/h 22.5 km/h 70 % 0 mm
12:00 25.8 °C 19.2 °C 1011.7 hPa ESE 19.3 km/h 25.7 km/h 67 % 0 mm
12:03 25.7 °C 19.1 °C 1011.7 hPa East 8 km/h 25.7 km/h 67 % 0 mm
12:04 24.3 °C 18.5 °C 1012.4 hPa ESE 8 km/h 22.5 km/h 70 % 0 mm
12:06 25.8 °C 19.4 °C 1011.7 hPa ESE 17.7 km/h 25.7 km/h 68 % 0 mm
12:09 24.2 °C 18.2 °C 1012.4 hPa East 16.1 km/h 24.1 km/h 69 % 0 mm
12:11 25.7 °C 19.1 °C 1011.4 hPa NNE 4.8 km/h 25.7 km/h 67 % 0 mm
12:14 24.2 °C 18.4 °C 1012.4 hPa SSW 12.9 km/h 24.1 km/h 70 % 0 mm
12:19 24.1 °C 18.5 °C 1012.4 hPa ESE 6.4 km/h 24.1 km/h 71 % 0 mm
12:24 24.1 °C 18.5 °C 1012.8 hPa ESE 12.9 km/h 20.9 km/h 71 % 0 mm
12:29 24.1 °C 18.3 °C 1012.4 hPa SE 14.5 km/h 22.5 km/h 70 % 0 mm
12:34 24.1 °C 18.5 °C 1012.4 hPa SE 17.7 km/h 25.7 km/h 71 % 0 mm
12:39 24.1 °C 18.5 °C 1012.4 hPa East 12.9 km/h 25.7 km/h 71 % 0 mm
12:44 24.3 °C 18.9 °C 1012.4 hPa South 4.8 km/h 25.7 km/h 72 % 0 mm
12:49 24.7 °C 19.5 °C 1012.1 hPa South 9.7 km/h 24.1 km/h 73 % 0 mm
12:54 24.8 °C 19.4 °C 1012.1 hPa SE 16.1 km/h 24.1 km/h 72 % 0 mm
12:59 24.7 °C 19.3 °C 1012.1 hPa SE 8 km/h 24.1 km/h 72 % 0 mm
13:04 24.7 °C 19.3 °C 1012.1 hPa SE 8 km/h 24.1 km/h 72 % 0 mm
13:09 24.8 °C 19.4 °C 1012.1 hPa SE 9.7 km/h 24.1 km/h 72 % 0 mm
13:14 24.8 °C 19.2 °C 1012.1 hPa SE 3.2 km/h 22.5 km/h 71 % 0 mm
13:19 24.6 °C 19 °C 1012.1 hPa SE 4.8 km/h 22.5 km/h 71 % 0 mm
13:24 24.8 °C 19.6 °C 1012.1 hPa SE 8 km/h 24.1 km/h 73 % 0 mm
13:29 25.4 °C 19.3 °C 1012.1 hPa ESE 4.8 km/h 24.1 km/h 69 % 0 mm
13:34 25.7 °C 19.1 °C 1012.1 hPa SSE 8 km/h 24.1 km/h 67 % 0 mm
13:39 25.6 °C 19 °C 1012.1 hPa East 16.1 km/h 25.7 km/h 67 % 0 mm
13:44 25.6 °C 19 °C 1012.1 hPa SE 20.9 km/h 25.7 km/h 67 % 0 mm
13:49 25.3 °C 18.7 °C 1012.1 hPa SE 9.7 km/h 25.7 km/h 67 % 0 mm
13:54 25.2 °C 18.6 °C 1012.1 hPa SE 8 km/h 22.5 km/h 67 % 0 mm
13:59 25.2 °C 18.4 °C 1012.1 hPa ESE 16.1 km/h 24.1 km/h 66 % 0 mm
14:04 25.3 °C 19 °C 1012.1 hPa SE 3.2 km/h 27.4 km/h 68 % 0 mm
14:05 25.3 °C 18.7 °C 1012.1 hPa SSE 11.3 km/h 27.4 km/h 67 % 0 mm
14:10 25.5 °C 18.9 °C 1012.1 hPa South 8 km/h 27.4 km/h 67 % 0 mm
14:15 25.4 °C 18.8 °C 1012.1 hPa SSE 20.9 km/h 27.4 km/h 67 % 0 mm
14:20 25.6 °C 18.8 °C 1012.1 hPa SE 16.1 km/h 27.4 km/h 66 % 0 mm
14:25 25.5 °C 18.7 °C 1012.1 hPa SSE 9.7 km/h 29 km/h 66 % 0 mm
14:30 25.7 °C 19.1 °C 1011.7 hPa East 12.9 km/h 29 km/h 67 % 0 mm
14:35 25.6 °C 19 °C 1011.7 hPa East 4.8 km/h 29 km/h 67 % 0 mm
14:40 25.8 °C 19.4 °C 1011.7 hPa SW 4.8 km/h 29 km/h 68 % 0 mm
14:45 25.9 °C 19.3 °C 1011.7 hPa ESE 8 km/h 27.4 km/h 67 % 0 mm
14:50 25.9 °C 19.3 °C 1011.7 hPa SE 11.3 km/h 27.4 km/h 67 % 0 mm
14:55 25.7 °C 19.3 °C 1011.7 hPa ESE 6.4 km/h 25.7 km/h 68 % 0 mm
15:00 25.8 °C 19.4 °C 1011.4 hPa ENE 9.7 km/h 25.7 km/h 68 % 0 mm
15:05 25.8 °C 19.4 °C 1011.4 hPa ESE 8 km/h 25.7 km/h 68 % 0 mm
15:10 26 °C 19.6 °C 1011.4 hPa SSE 8 km/h 27.4 km/h 68 % 0 mm
15:15 26.1 °C 19.5 °C 1011.4 hPa SE 12.9 km/h 27.4 km/h 67 % 0 mm
15:20 25.8 °C 19.4 °C 1011.4 hPa SE 8 km/h 27.4 km/h 68 % 0 mm
15:25 26.1 °C 19.7 °C 1011.1 hPa SE 19.3 km/h 25.7 km/h 68 % 0 mm
15:30 26.3 °C 19.4 °C 1011.1 hPa SE 6.4 km/h 25.7 km/h 66 % 0 mm
15:31 26.3 °C 19.4 °C 1011.1 hPa SE 8 km/h 25.7 km/h 66 % 0 mm
15:36 26.1 °C 19.2 °C 1011.1 hPa ENE 4.8 km/h 24.1 km/h 66 % 0 mm
15:41 25.9 °C 19.5 °C 1011.1 hPa ESE 8 km/h 20.9 km/h 68 % 0 mm
15:46 25.9 °C 19.5 °C 1011.1 hPa East 17.7 km/h 20.9 km/h 68 % 0 mm
15:51 25.8 °C 19.2 °C 1011.1 hPa ESE 4.8 km/h 25.7 km/h 67 % 0 mm
15:56 25.8 °C 19.7 °C 1011.1 hPa ENE 6.4 km/h 25.7 km/h 69 % 0 mm
16:01 25.9 °C 19.5 °C 1011.1 hPa ESE 11.3 km/h 25.7 km/h 68 % 0 mm
16:06 25.7 °C 19.3 °C 1011.1 hPa SE 6.4 km/h 22.5 km/h 68 % 0 mm
16:11 25.6 °C 19.5 °C 1011.1 hPa SE 11.3 km/h 25.7 km/h 69 % 0 mm
16:16 25.5 °C 19.6 °C 1011.1 hPa ESE 14.5 km/h 25.7 km/h 70 % 0 mm
16:21 25.6 °C 19.5 °C 1011.1 hPa SE 14.5 km/h 25.7 km/h 69 % 0 mm
16:26 25.8 °C 19.4 °C 1011.1 hPa ESE 17.7 km/h 24.1 km/h 68 % 0 mm
16:31 25.8 °C 19.7 °C 1011.1 hPa East 12.9 km/h 24.1 km/h 69 % 0 mm
16:36 25.7 °C 19.8 °C 1011.1 hPa ESE 6.4 km/h 20.9 km/h 70 % 0 mm
16:41 25.6 °C 20.2 °C 1011.1 hPa ENE 9.7 km/h 24.1 km/h 72 % 0 mm
16:46 25.4 °C 19.8 °C 1010.7 hPa SSE 8 km/h 24.1 km/h 71 % 0 mm
16:51 25.3 °C 19.4 °C 1011.1 hPa SE 8 km/h 24.1 km/h 70 % 0 mm
16:56 25.1 °C 19.5 °C 1011.1 hPa ESE 12.9 km/h 22.5 km/h 71 % 0 mm
17:01 24.9 °C 19.3 °C 1011.1 hPa East 4.8 km/h 22.5 km/h 71 % 0 mm
17:06 24.8 °C 19.2 °C 1011.1 hPa SE 6.4 km/h 22.5 km/h 71 % 0 mm
17:11 24.7 °C 19.3 °C 1011.1 hPa ESE 8 km/h 20.9 km/h 72 % 0 mm
17:16 24.6 °C 19.2 °C 1011.1 hPa East 6.4 km/h 20.9 km/h 72 % 0 mm
17:21 24.6 °C 19.2 °C 1011.1 hPa SSE 4.8 km/h 20.9 km/h 72 % 0 mm
17:26 24.4 °C 19.2 °C 1011.1 hPa East 12.9 km/h 17.7 km/h 73 % 0 mm
17:31 24.5 °C 19.1 °C 1011.1 hPa ESE 8 km/h 24.1 km/h 72 % 0 mm
17:36 24.5 °C 19.1 °C 1011.1 hPa SSE 9.7 km/h 24.1 km/h 72 % 0 mm
17:41 24.4 °C 19 °C 1011.1 hPa SSE 4.8 km/h 24.1 km/h 72 % 0 mm
17:46 24.4 °C 19.2 °C 1011.1 hPa SE 14.5 km/h 22.5 km/h 73 % 0 mm
17:51 24.3 °C 19.4 °C 1011.1 hPa SSE 11.3 km/h 22.5 km/h 74 % 0 mm
17:56 24.4 °C 19.2 °C 1011.1 hPa SE 8 km/h 20.9 km/h 73 % 0 mm
18:01 24.5 °C 19.1 °C 1011.1 hPa SE 8 km/h 20.9 km/h 72 % 0 mm
18:06 24.5 °C 19.1 °C 1011.1 hPa SSE 1.6 km/h 19.3 km/h 72 % 0 mm
18:11 24.3 °C 18.9 °C 1011.4 hPa East 14.5 km/h 19.3 km/h 72 % 0 mm
18:16 24.3 °C 19.1 °C 1011.1 hPa SE 12.9 km/h 22.5 km/h 73 % 0 mm
18:21 24.2 °C 19.1 °C 1011.4 hPa ESE 9.7 km/h 22.5 km/h 73 % 0 mm
18:26 24.2 °C 19.1 °C 1011.1 hPa ESE 9.7 km/h 22.5 km/h 73 % 0 mm
18:27 24.1 °C 19 °C 1011.1 hPa ESE 9.7 km/h 22.5 km/h 73 % 0 mm
18:32 24.1 °C 19 °C 1011.1 hPa ESE 9.7 km/h 22.5 km/h 73 % 0 mm
18:37 23.9 °C 19 °C 1011.4 hPa SE 16.1 km/h 22.5 km/h 74 % 0 mm
18:42 23.8 °C 18.9 °C 1011.4 hPa SSE 6.4 km/h 25.7 km/h 74 % 0 mm
18:47 23.8 °C 18.9 °C 1011.4 hPa South 6.4 km/h 25.7 km/h 74 % 0 mm
18:52 23.8 °C 19.1 °C 1011.4 hPa ENE 4.8 km/h 25.7 km/h 75 % 0 mm
18:57 23.8 °C 19.1 °C 1011.4 hPa ESE 8 km/h 20.9 km/h 75 % 0 mm
19:02 23.8 °C 19.1 °C 1011.4 hPa SE 9.7 km/h 19.3 km/h 75 % 0 mm
19:07 23.8 °C 19.3 °C 1011.4 hPa East 12.9 km/h 19.3 km/h 76 % 0 mm
19:12 23.7 °C 19.2 °C 1011.4 hPa SE 1.6 km/h 19.3 km/h 76 % 0 mm
19:17 23.6 °C 19.3 °C 1011.4 hPa SE 9.7 km/h 19.3 km/h 77 % 0 mm
19:22 23.5 °C 19.2 °C 1011.4 hPa East 4.8 km/h 19.3 km/h 77 % 0 mm
19:27 23.4 °C 19.3 °C 1011.7 hPa ESE 19.3 km/h 24.1 km/h 78 % 0 mm
19:32 23.3 °C 19.2 °C 1011.4 hPa ESE 11.3 km/h 24.1 km/h 78 % 0 mm
19:33 23.3 °C 19.2 °C 1011.4 hPa East 8 km/h 24.1 km/h 78 % 0 mm
19:39 23.3 °C 19.2 °C 1011.1 hPa ESE 9.7 km/h 24.1 km/h 78 % 0 mm
19:43 23.2 °C 19.1 °C 1011.1 hPa ESE 8 km/h 22.5 km/h 78 % 0 mm
19:49 23.2 °C 19.4 °C 1011.7 hPa SE 4.8 km/h 17.7 km/h 79 % 0 mm
19:54 23.1 °C 19.3 °C 1011.7 hPa ESE 8 km/h 17.7 km/h 79 % 0 mm
19:59 23.1 °C 19.5 °C 1011.4 hPa South 1.6 km/h 16.1 km/h 80 % 0 mm
20:04 22.9 °C 19.3 °C 1011.4 hPa ESE 1.6 km/h 16.1 km/h 80 % 0 mm
20:09 22.9 °C 19.5 °C 1011.4 hPa East 1.6 km/h 16.1 km/h 81 % 0 mm
20:14 22.8 °C 19.4 °C 1011.4 hPa East 4.8 km/h 11.3 km/h 81 % 0 mm
20:19 22.8 °C 19.4 °C 1011.7 hPa SE 3.2 km/h 12.9 km/h 81 % 0 mm
20:24 22.7 °C 19.5 °C 1011.7 hPa SE 6.4 km/h 14.5 km/h 82 % 0 mm
20:29 22.7 °C 19.5 °C 1011.7 hPa East 1.6 km/h 14.5 km/h 82 % 0 mm
20:34 22.6 °C 19.4 °C 1012.1 hPa SE 3.2 km/h 14.5 km/h 82 % 0 mm
20:39 22.6 °C 19.6 °C 1012.1 hPa ESE 4.8 km/h 14.5 km/h 83 % 0 mm
20:44 22.6 °C 19.6 °C 1012.1 hPa SE 1.6 km/h 14.5 km/h 83 % 0 mm
20:49 22.6 °C 19.6 °C 1011.7 hPa ESE 1.6 km/h 12.9 km/h 83 % 0 mm
20:54 22.5 °C 19.7 °C 1010.7 hPa East 8 km/h 12.9 km/h 84 % 0 mm
20:59 22.4 °C 19.6 °C 1011.1 hPa South 3.2 km/h 16.1 km/h 84 % 0 mm
21:04 22.3 °C 19.7 °C 1010.7 hPa ESE 1.6 km/h 16.1 km/h 85 % 0 mm
21:09 22.3 °C 19.7 °C 1011.1 hPa NW 1.6 km/h 16.1 km/h 85 % 0 mm
21:14 22.2 °C 19.6 °C 1011.4 hPa SSE 1.6 km/h 16.1 km/h 85 % 0 mm
21:19 22.2 °C 19.6 °C 1011.7 hPa ESE 4.8 km/h 16.1 km/h 85 % 0 mm
21:24 22.2 °C 19.6 °C 1011.7 hPa SE 4.8 km/h 14.5 km/h 85 % 0 mm
21:29 22.2 °C 19.6 °C 1011.7 hPa ESE 3.2 km/h 14.5 km/h 85 % 0 mm
21:34 22.2 °C 19.6 °C 1012.1 hPa SE 4.8 km/h 14.5 km/h 85 % 0 mm
21:39 22.2 °C 19.6 °C 1011.7 hPa SSE 4.8 km/h 17.7 km/h 85 % 0 mm
21:44 22.2 °C 19.6 °C 1011.7 hPa SE 11.3 km/h 17.7 km/h 85 % 0 mm
21:49 22.2 °C 19.6 °C 1011.7 hPa ESE 1.6 km/h 24.1 km/h 85 % 0 mm
21:54 22.2 °C 19.6 °C 1011.7 hPa ESE 6.4 km/h 24.1 km/h 85 % 0 mm
21:59 22.2 °C 19.6 °C 1011.7 hPa SE 8 km/h 24.1 km/h 85 % 0 mm
22:04 22.1 °C 19.5 °C 1011.7 hPa East 4.8 km/h 17.7 km/h 85 % 0 mm
22:09 22.1 °C 19.5 °C 1011.7 hPa SSE 4.8 km/h 16.1 km/h 85 % 0 mm
22:14 22.2 °C 19.6 °C 1011.7 hPa East 4.8 km/h 16.1 km/h 85 % 0 mm
22:19 22.2 °C 19.6 °C 1011.7 hPa North 3.2 km/h 16.1 km/h 85 % 0 mm
22:24 22.2 °C 19.6 °C 1011.7 hPa SSE 11.3 km/h 16.1 km/h 85 % 0 mm
22:29 22.3 °C 19.7 °C 1011.7 hPa East 11.3 km/h 25.7 km/h 85 % 0 mm
22:34 22.3 °C 19.7 °C 1011.7 hPa SE 4.8 km/h 25.7 km/h 85 % 0 mm
22:39 22.2 °C 19.7 °C 1011.7 hPa ESE 4.8 km/h 25.7 km/h 86 % 0 mm
22:44 22.2 °C 19.7 °C 1011.7 hPa SE 4.8 km/h 17.7 km/h 86 % 0 mm
22:49 22.2 °C 19.7 °C 1011.7 hPa ESE 4.8 km/h 17.7 km/h 86 % 0 mm
22:54 22.2 °C 19.7 °C 1011.7 hPa SSE 3.2 km/h 16.1 km/h 86 % 0 mm
22:59 22.1 °C 19.6 °C 1011.7 hPa SE 3.2 km/h 16.1 km/h 86 % 0 mm
23:09 22.1 °C 19.6 °C 1011.7 hPa East 8 km/h 17.7 km/h 86 % 0 mm
23:14 22 °C 19.5 °C 1011.7 hPa SSE 4.8 km/h 17.7 km/h 86 % 0 mm
23:19 21.9 °C 19.6 °C 1011.7 hPa ESE 4.8 km/h 16.1 km/h 87 % 0 mm
23:24 21.9 °C 19.6 °C 1011.7 hPa SE 1.6 km/h 12.9 km/h 87 % 0 mm
23:29 21.9 °C 19.6 °C 1011.7 hPa East 6.4 km/h 12.9 km/h 87 % 0 mm
23:34 21.9 °C 19.6 °C 1011.7 hPa ESE 1.6 km/h 14.5 km/h 87 % 0 mm
23:39 21.9 °C 19.6 °C 1011.7 hPa East 1.6 km/h 14.5 km/h 87 % 0 mm
23:45 21.8 °C 19.7 °C 1011.4 hPa ESE 6.4 km/h 14.5 km/h 88 % 0 mm
23:49 21.8 °C 19.7 °C 1011.1 hPa ESE 3.2 km/h 12.9 km/h 88 % 0 mm
23:55 21.8 °C 19.7 °C 1011.1 hPa ENE 4.8 km/h 9.7 km/h 88 % 0 mm
Spring, Texas: Villages of Bridgestone
Compliments of Weather Underground - 3 mb

Script developed by  Jim McMurry - jmcmurry@mwt.net Adapted for the template by  Wim van der Kuil - Leuven-Template.eu

You find our weather info also at:

UK Metoffice

WeatherCloud

Weather Underground

Mid-South Weather Network

AWEKAS

Citizen Weather Observer Program (CWOP)

HAMweather, WeatherForYou, PWS Weather

Equipment we use:

Weather-station
Davis Vantage Vue

Weather-program
Meteohub

Weather-server
Debian 7.9 x86 (Guest)

Provider
DreamHost

Davis Vantage Vue

Meteohub

Debian 7.9 x86 (Guest)

DreamHost